sensor_id;sensor_type;location;lat;lon;timestamp;P1;durP1;ratioP1;P2;durP2;ratioP2
20928;SDS011;21895;47.072;15.132;2023-12-29T00:01:29;5.67;;;2.43;;
20928;SDS011;21895;47.072;15.132;2023-12-29T00:03:56;1.93;;;1.40;;
20928;SDS011;21895;47.072;15.132;2023-12-29T00:06:23;1.03;;;0.77;;
20928;SDS011;21895;47.072;15.132;2023-12-29T00:08:50;1.20;;;1.07;;
20928;SDS011;21895;47.072;15.132;2023-12-29T00:11:17;3.07;;;1.40;;
20928;SDS011;21895;47.072;15.132;2023-12-29T00:13:45;0.90;;;0.63;;
20928;SDS011;21895;47.072;15.132;2023-12-29T00:16:12;1.33;;;1.20;;
20928;SDS011;21895;47.072;15.132;2023-12-29T00:18:39;3.23;;;1.63;;
20928;SDS011;21895;47.072;15.132;2023-12-29T00:21:06;5.53;;;1.90;;
20928;SDS011;21895;47.072;15.132;2023-12-29T00:23:33;1.93;;;1.17;;
20928;SDS011;21895;47.072;15.132;2023-12-29T00:26:00;3.27;;;1.33;;
20928;SDS011;21895;47.072;15.132;2023-12-29T00:28:26;1.93;;;1.33;;
20928;SDS011;21895;47.072;15.132;2023-12-29T00:30:53;2.83;;;1.33;;
20928;SDS011;21895;47.072;15.132;2023-12-29T00:33:28;0.97;;;0.83;;
20928;SDS011;21895;47.072;15.132;2023-12-29T00:35:56;0.73;;;0.47;;
20928;SDS011;21895;47.072;15.132;2023-12-29T00:38:22;0.87;;;0.60;;
20928;SDS011;21895;47.072;15.132;2023-12-29T00:40:50;1.60;;;0.50;;
20928;SDS011;21895;47.072;15.132;2023-12-29T00:43:16;4.20;;;1.30;;
20928;SDS011;21895;47.072;15.132;2023-12-29T00:45:44;0.93;;;0.90;;
20928;SDS011;21895;47.072;15.132;2023-12-29T00:48:11;5.57;;;1.37;;
20928;SDS011;21895;47.072;15.132;2023-12-29T00:50:37;1.13;;;1.03;;
20928;SDS011;21895;47.072;15.132;2023-12-29T00:53:04;4.33;;;1.30;;
20928;SDS011;21895;47.072;15.132;2023-12-29T00:55:31;2.63;;;1.37;;
20928;SDS011;21895;47.072;15.132;2023-12-29T00:57:57;2.43;;;1.73;;
20928;SDS011;21895;47.072;15.132;2023-12-29T01:00:24;1.87;;;1.20;;
20928;SDS011;21895;47.072;15.132;2023-12-29T01:02:51;3.93;;;1.70;;
20928;SDS011;21895;47.072;15.132;2023-12-29T01:05:18;1.70;;;0.87;;
20928;SDS011;21895;47.072;15.132;2023-12-29T01:07:44;1.97;;;0.93;;
20928;SDS011;21895;47.072;15.132;2023-12-29T01:10:11;2.97;;;1.10;;
20928;SDS011;21895;47.072;15.132;2023-12-29T01:12:38;3.07;;;1.73;;
20928;SDS011;21895;47.072;15.132;2023-12-29T01:15:05;0.90;;;0.87;;
20928;SDS011;21895;47.072;15.132;2023-12-29T01:17:32;1.13;;;0.60;;
20928;SDS011;21895;47.072;15.132;2023-12-29T01:19:59;2.10;;;0.83;;
20928;SDS011;21895;47.072;15.132;2023-12-29T01:22:26;2.37;;;1.23;;
20928;SDS011;21895;47.072;15.132;2023-12-29T01:24:52;6.23;;;2.27;;
20928;SDS011;21895;47.072;15.132;2023-12-29T01:27:19;2.40;;;0.83;;
20928;SDS011;21895;47.072;15.132;2023-12-29T01:29:45;0.33;;;0.33;;
20928;SDS011;21895;47.072;15.132;2023-12-29T01:32:12;1.80;;;0.50;;
20928;SDS011;21895;47.072;15.132;2023-12-29T01:34:39;3.17;;;1.10;;
20928;SDS011;21895;47.072;15.132;2023-12-29T01:37:06;3.27;;;1.50;;
20928;SDS011;21895;47.072;15.132;2023-12-29T01:39:33;3.77;;;1.00;;
20928;SDS011;21895;47.072;15.132;2023-12-29T01:42:00;0.80;;;0.80;;
20928;SDS011;21895;47.072;15.132;2023-12-29T01:44:27;1.80;;;1.00;;
20928;SDS011;21895;47.072;15.132;2023-12-29T01:46:55;1.73;;;1.27;;
20928;SDS011;21895;47.072;15.132;2023-12-29T01:49:25;3.27;;;1.33;;
20928;SDS011;21895;47.072;15.132;2023-12-29T01:51:54;1.23;;;0.83;;
20928;SDS011;21895;47.072;15.132;2023-12-29T01:54:27;3.43;;;1.37;;
20928;SDS011;21895;47.072;15.132;2023-12-29T01:57:01;1.73;;;0.67;;
20928;SDS011;21895;47.072;15.132;2023-12-29T01:59:29;1.90;;;1.33;;
20928;SDS011;21895;47.072;15.132;2023-12-29T02:01:56;1.70;;;0.50;;
20928;SDS011;21895;47.072;15.132;2023-12-29T02:04:24;1.17;;;0.70;;
20928;SDS011;21895;47.072;15.132;2023-12-29T02:06:52;1.73;;;1.03;;
20928;SDS011;21895;47.072;15.132;2023-12-29T02:09:19;1.43;;;0.80;;
20928;SDS011;21895;47.072;15.132;2023-12-29T02:11:46;2.10;;;1.33;;
20928;SDS011;21895;47.072;15.132;2023-12-29T02:14:17;2.70;;;1.10;;
20928;SDS011;21895;47.072;15.132;2023-12-29T02:17:28;1.13;;;0.93;;
20928;SDS011;21895;47.072;15.132;2023-12-29T02:20:06;0.70;;;0.70;;
20928;SDS011;21895;47.072;15.132;2023-12-29T02:22:35;0.70;;;0.57;;
20928;SDS011;21895;47.072;15.132;2023-12-29T02:25:01;0.80;;;0.60;;
20928;SDS011;21895;47.072;15.132;2023-12-29T02:31:50;0.60;;;0.40;;
20928;SDS011;21895;47.072;15.132;2023-12-29T02:34:24;0.43;;;0.43;;
20928;SDS011;21895;47.072;15.132;2023-12-29T02:36:53;0.40;;;0.20;;
20928;SDS011;21895;47.072;15.132;2023-12-29T02:39:22;1.43;;;0.70;;
20928;SDS011;21895;47.072;15.132;2023-12-29T02:41:49;1.37;;;0.80;;
20928;SDS011;21895;47.072;15.132;2023-12-29T02:44:15;0.40;;;0.40;;
20928;SDS011;21895;47.072;15.132;2023-12-29T02:46:42;1.83;;;0.73;;
20928;SDS011;21895;47.072;15.132;2023-12-29T02:49:09;0.70;;;0.70;;
20928;SDS011;21895;47.072;15.132;2023-12-29T02:51:38;4.47;;;1.20;;
20928;SDS011;21895;47.072;15.132;2023-12-29T02:54:06;0.43;;;0.40;;
20928;SDS011;21895;47.072;15.132;2023-12-29T02:56:33;4.33;;;0.77;;
20928;SDS011;21895;47.072;15.132;2023-12-29T02:59:00;0.73;;;0.73;;
20928;SDS011;21895;47.072;15.132;2023-12-29T03:01:27;0.30;;;0.30;;
20928;SDS011;21895;47.072;15.132;2023-12-29T03:03:54;0.47;;;0.47;;
20928;SDS011;21895;47.072;15.132;2023-12-29T03:06:22;0.13;;;0.13;;
20928;SDS011;21895;47.072;15.132;2023-12-29T03:08:48;0.27;;;0.27;;
20928;SDS011;21895;47.072;15.132;2023-12-29T03:11:15;0.77;;;0.50;;
20928;SDS011;21895;47.072;15.132;2023-12-29T03:13:41;1.50;;;0.53;;
20928;SDS011;21895;47.072;15.132;2023-12-29T03:16:11;0.93;;;0.43;;
20928;SDS011;21895;47.072;15.132;2023-12-29T03:18:37;1.07;;;0.60;;
20928;SDS011;21895;47.072;15.132;2023-12-29T03:21:06;0.60;;;0.60;;
20928;SDS011;21895;47.072;15.132;2023-12-29T03:23:33;0.57;;;0.53;;
20928;SDS011;21895;47.072;15.132;2023-12-29T03:26:00;0.50;;;0.50;;
20928;SDS011;21895;47.072;15.132;2023-12-29T03:28:28;0.50;;;0.40;;
20928;SDS011;21895;47.072;15.132;2023-12-29T03:30:57;0.50;;;0.50;;
20928;SDS011;21895;47.072;15.132;2023-12-29T03:33:24;1.23;;;0.43;;
20928;SDS011;21895;47.072;15.132;2023-12-29T03:35:51;2.10;;;1.07;;
20928;SDS011;21895;47.072;15.132;2023-12-29T03:38:17;2.97;;;0.70;;
20928;SDS011;21895;47.072;15.132;2023-12-29T03:40:44;0.60;;;0.40;;
20928;SDS011;21895;47.072;15.132;2023-12-29T03:43:10;0.40;;;0.37;;
20928;SDS011;21895;47.072;15.132;2023-12-29T03:45:37;1.30;;;1.10;;
20928;SDS011;21895;47.072;15.132;2023-12-29T03:48:04;0.50;;;0.50;;
20928;SDS011;21895;47.072;15.132;2023-12-29T03:50:32;1.27;;;1.10;;
20928;SDS011;21895;47.072;15.132;2023-12-29T03:52:58;0.83;;;0.67;;
20928;SDS011;21895;47.072;15.132;2023-12-29T03:55:25;0.83;;;0.50;;
20928;SDS011;21895;47.072;15.132;2023-12-29T03:57:51;0.20;;;0.20;;
20928;SDS011;21895;47.072;15.132;2023-12-29T04:00:18;1.53;;;0.67;;
20928;SDS011;21895;47.072;15.132;2023-12-29T04:02:45;0.63;;;0.63;;
20928;SDS011;21895;47.072;15.132;2023-12-29T04:05:11;3.83;;;1.10;;
20928;SDS011;21895;47.072;15.132;2023-12-29T04:07:41;0.20;;;0.20;;
20928;SDS011;21895;47.072;15.132;2023-12-29T04:10:08;0.93;;;0.70;;
20928;SDS011;21895;47.072;15.132;2023-12-29T04:12:35;1.13;;;0.83;;
20928;SDS011;21895;47.072;15.132;2023-12-29T04:15:05;0.77;;;0.40;;
20928;SDS011;21895;47.072;15.132;2023-12-29T04:17:32;2.30;;;0.60;;
20928;SDS011;21895;47.072;15.132;2023-12-29T04:19:59;0.60;;;0.30;;
20928;SDS011;21895;47.072;15.132;2023-12-29T04:22:26;2.17;;;0.70;;
20928;SDS011;21895;47.072;15.132;2023-12-29T04:24:52;0.73;;;0.43;;
20928;SDS011;21895;47.072;15.132;2023-12-29T04:27:19;0.47;;;0.47;;
20928;SDS011;21895;47.072;15.132;2023-12-29T04:29:47;0.67;;;0.43;;
20928;SDS011;21895;47.072;15.132;2023-12-29T04:32:14;0.23;;;0.23;;
20928;SDS011;21895;47.072;15.132;2023-12-29T04:34:41;0.50;;;0.50;;
20928;SDS011;21895;47.072;15.132;2023-12-29T04:37:07;3.20;;;1.07;;
20928;SDS011;21895;47.072;15.132;2023-12-29T04:39:34;0.47;;;0.47;;
20928;SDS011;21895;47.072;15.132;2023-12-29T04:42:01;1.40;;;0.50;;
20928;SDS011;21895;47.072;15.132;2023-12-29T04:44:27;0.93;;;0.50;;
20928;SDS011;21895;47.072;15.132;2023-12-29T04:46:54;1.17;;;0.80;;
20928;SDS011;21895;47.072;15.132;2023-12-29T04:49:21;0.50;;;0.50;;
20928;SDS011;21895;47.072;15.132;2023-12-29T04:51:48;1.23;;;0.40;;
20928;SDS011;21895;47.072;15.132;2023-12-29T04:54:14;2.53;;;0.77;;
20928;SDS011;21895;47.072;15.132;2023-12-29T04:56:41;0.40;;;0.40;;
20928;SDS011;21895;47.072;15.132;2023-12-29T04:59:10;1.60;;;0.40;;
20928;SDS011;21895;47.072;15.132;2023-12-29T05:01:37;1.47;;;0.60;;
20928;SDS011;21895;47.072;15.132;2023-12-29T05:04:04;1.37;;;0.60;;
20928;SDS011;21895;47.072;15.132;2023-12-29T05:06:30;0.60;;;0.60;;
20928;SDS011;21895;47.072;15.132;2023-12-29T05:08:57;0.60;;;0.43;;
20928;SDS011;21895;47.072;15.132;2023-12-29T05:11:24;1.13;;;0.70;;
20928;SDS011;21895;47.072;15.132;2023-12-29T05:13:50;1.17;;;0.70;;
20928;SDS011;21895;47.072;15.132;2023-12-29T05:16:17;0.50;;;0.50;;
20928;SDS011;21895;47.072;15.132;2023-12-29T05:18:44;1.10;;;0.70;;
20928;SDS011;21895;47.072;15.132;2023-12-29T05:21:14;0.57;;;0.57;;
20928;SDS011;21895;47.072;15.132;2023-12-29T05:23:44;0.20;;;0.20;;
20928;SDS011;21895;47.072;15.132;2023-12-29T05:26:11;1.53;;;0.90;;
20928;SDS011;21895;47.072;15.132;2023-12-29T05:28:38;3.60;;;1.23;;
20928;SDS011;21895;47.072;15.132;2023-12-29T05:31:05;2.17;;;0.87;;
20928;SDS011;21895;47.072;15.132;2023-12-29T05:33:32;1.37;;;0.70;;
20928;SDS011;21895;47.072;15.132;2023-12-29T05:36:04;1.07;;;0.80;;
20928;SDS011;21895;47.072;15.132;2023-12-29T05:38:36;0.50;;;0.50;;
20928;SDS011;21895;47.072;15.132;2023-12-29T05:41:04;1.93;;;0.50;;
20928;SDS011;21895;47.072;15.132;2023-12-29T05:43:31;0.53;;;0.50;;
20928;SDS011;21895;47.072;15.132;2023-12-29T05:46:00;0.37;;;0.37;;
20928;SDS011;21895;47.072;15.132;2023-12-29T05:48:27;0.53;;;0.40;;
20928;SDS011;21895;47.072;15.132;2023-12-29T05:50:54;1.10;;;0.70;;
20928;SDS011;21895;47.072;15.132;2023-12-29T05:53:20;0.40;;;0.40;;
20928;SDS011;21895;47.072;15.132;2023-12-29T05:55:47;0.30;;;0.30;;
20928;SDS011;21895;47.072;15.132;2023-12-29T05:58:14;0.50;;;0.50;;
20928;SDS011;21895;47.072;15.132;2023-12-29T06:00:40;1.03;;;0.60;;
20928;SDS011;21895;47.072;15.132;2023-12-29T06:03:07;0.40;;;0.40;;
20928;SDS011;21895;47.072;15.132;2023-12-29T06:05:34;1.50;;;0.60;;
20928;SDS011;21895;47.072;15.132;2023-12-29T06:08:00;0.93;;;0.90;;
20928;SDS011;21895;47.072;15.132;2023-12-29T06:10:27;1.30;;;0.57;;
20928;SDS011;21895;47.072;15.132;2023-12-29T06:12:54;0.47;;;0.47;;
20928;SDS011;21895;47.072;15.132;2023-12-29T06:15:21;0.90;;;0.53;;
20928;SDS011;21895;47.072;15.132;2023-12-29T06:17:47;0.30;;;0.30;;
20928;SDS011;21895;47.072;15.132;2023-12-29T06:20:14;0.43;;;0.43;;
20928;SDS011;21895;47.072;15.132;2023-12-29T06:22:41;0.13;;;0.13;;
20928;SDS011;21895;47.072;15.132;2023-12-29T06:25:11;0.67;;;0.67;;
20928;SDS011;21895;47.072;15.132;2023-12-29T06:27:38;9.83;;;1.37;;
20928;SDS011;21895;47.072;15.132;2023-12-29T06:30:06;0.97;;;0.50;;
20928;SDS011;21895;47.072;15.132;2023-12-29T06:32:34;0.30;;;0.30;;
20928;SDS011;21895;47.072;15.132;2023-12-29T06:35:01;0.40;;;0.40;;
20928;SDS011;21895;47.072;15.132;2023-12-29T06:37:28;0.30;;;0.30;;
20928;SDS011;21895;47.072;15.132;2023-12-29T06:39:55;0.30;;;0.30;;
20928;SDS011;21895;47.072;15.132;2023-12-29T06:42:21;1.17;;;0.60;;
20928;SDS011;21895;47.072;15.132;2023-12-29T06:44:48;0.30;;;0.30;;
20928;SDS011;21895;47.072;15.132;2023-12-29T06:47:15;0.77;;;0.70;;
20928;SDS011;21895;47.072;15.132;2023-12-29T06:49:41;0.60;;;0.60;;
20928;SDS011;21895;47.072;15.132;2023-12-29T06:52:08;1.27;;;1.17;;
20928;SDS011;21895;47.072;15.132;2023-12-29T06:54:35;0.40;;;0.40;;
20928;SDS011;21895;47.072;15.132;2023-12-29T06:57:02;0.70;;;0.70;;
20928;SDS011;21895;47.072;15.132;2023-12-29T06:59:29;2.03;;;0.50;;
20928;SDS011;21895;47.072;15.132;2023-12-29T07:01:56;2.57;;;0.90;;
20928;SDS011;21895;47.072;15.132;2023-12-29T07:04:23;0.57;;;0.57;;
20928;SDS011;21895;47.072;15.132;2023-12-29T07:06:49;0.80;;;0.80;;
20928;SDS011;21895;47.072;15.132;2023-12-29T07:09:16;5.47;;;0.80;;
20928;SDS011;21895;47.072;15.132;2023-12-29T07:11:49;0.10;;;0.10;;
20928;SDS011;21895;47.072;15.132;2023-12-29T07:14:16;0.93;;;0.60;;
20928;SDS011;21895;47.072;15.132;2023-12-29T07:16:43;0.37;;;0.37;;
20928;SDS011;21895;47.072;15.132;2023-12-29T07:19:10;3.20;;;1.57;;
20928;SDS011;21895;47.072;15.132;2023-12-29T07:21:37;1.40;;;0.60;;
20928;SDS011;21895;47.072;15.132;2023-12-29T07:24:04;2.80;;;1.47;;
20928;SDS011;21895;47.072;15.132;2023-12-29T07:26:34;1.40;;;0.40;;
20928;SDS011;21895;47.072;15.132;2023-12-29T07:29:03;3.10;;;1.40;;
20928;SDS011;21895;47.072;15.132;2023-12-29T07:31:31;0.70;;;0.40;;
20928;SDS011;21895;47.072;15.132;2023-12-29T07:33:59;0.60;;;0.60;;
20928;SDS011;21895;47.072;15.132;2023-12-29T07:36:25;1.33;;;0.90;;
20928;SDS011;21895;47.072;15.132;2023-12-29T07:38:52;1.60;;;1.07;;
20928;SDS011;21895;47.072;15.132;2023-12-29T07:41:19;0.93;;;0.80;;
20928;SDS011;21895;47.072;15.132;2023-12-29T07:43:45;4.80;;;0.90;;
20928;SDS011;21895;47.072;15.132;2023-12-29T07:46:12;0.77;;;0.63;;
20928;SDS011;21895;47.072;15.132;2023-12-29T07:48:38;0.60;;;0.40;;
20928;SDS011;21895;47.072;15.132;2023-12-29T07:51:05;0.30;;;0.30;;
20928;SDS011;21895;47.072;15.132;2023-12-29T07:53:32;0.83;;;0.80;;
20928;SDS011;21895;47.072;15.132;2023-12-29T07:55:59;0.40;;;0.40;;
20928;SDS011;21895;47.072;15.132;2023-12-29T07:58:25;1.00;;;0.87;;
20928;SDS011;21895;47.072;15.132;2023-12-29T08:00:52;0.50;;;0.43;;
20928;SDS011;21895;47.072;15.132;2023-12-29T08:03:19;1.03;;;0.60;;
20928;SDS011;21895;47.072;15.132;2023-12-29T08:05:46;3.17;;;1.33;;
20928;SDS011;21895;47.072;15.132;2023-12-29T08:08:12;2.07;;;1.00;;
20928;SDS011;21895;47.072;15.132;2023-12-29T08:10:40;0.40;;;0.40;;
20928;SDS011;21895;47.072;15.132;2023-12-29T08:13:06;1.67;;;1.07;;
20928;SDS011;21895;47.072;15.132;2023-12-29T08:15:35;0.80;;;0.70;;
20928;SDS011;21895;47.072;15.132;2023-12-29T08:18:03;4.07;;;1.63;;
20928;SDS011;21895;47.072;15.132;2023-12-29T08:20:31;2.20;;;1.30;;
20928;SDS011;21895;47.072;15.132;2023-12-29T08:22:57;1.00;;;0.77;;
20928;SDS011;21895;47.072;15.132;2023-12-29T08:25:24;1.10;;;1.00;;
20928;SDS011;21895;47.072;15.132;2023-12-29T08:27:50;1.30;;;0.77;;
20928;SDS011;21895;47.072;15.132;2023-12-29T08:30:17;1.10;;;0.87;;
20928;SDS011;21895;47.072;15.132;2023-12-29T08:32:44;1.67;;;0.90;;
20928;SDS011;21895;47.072;15.132;2023-12-29T08:35:10;1.43;;;0.63;;
20928;SDS011;21895;47.072;15.132;2023-12-29T08:37:37;0.87;;;0.63;;
20928;SDS011;21895;47.072;15.132;2023-12-29T08:40:04;1.13;;;0.67;;
20928;SDS011;21895;47.072;15.132;2023-12-29T08:42:33;1.23;;;0.70;;
20928;SDS011;21895;47.072;15.132;2023-12-29T08:44:59;1.73;;;1.17;;
20928;SDS011;21895;47.072;15.132;2023-12-29T08:47:26;7.23;;;1.43;;
20928;SDS011;21895;47.072;15.132;2023-12-29T08:49:53;0.93;;;0.53;;
20928;SDS011;21895;47.072;15.132;2023-12-29T08:52:20;1.07;;;0.60;;
20928;SDS011;21895;47.072;15.132;2023-12-29T08:54:46;4.63;;;1.30;;
20928;SDS011;21895;47.072;15.132;2023-12-29T08:57:13;2.30;;;1.43;;
20928;SDS011;21895;47.072;15.132;2023-12-29T08:59:40;1.33;;;0.67;;
20928;SDS011;21895;47.072;15.132;2023-12-29T09:02:06;0.90;;;0.70;;
20928;SDS011;21895;47.072;15.132;2023-12-29T09:04:33;2.33;;;0.60;;
20928;SDS011;21895;47.072;15.132;2023-12-29T09:06:59;1.17;;;0.80;;
20928;SDS011;21895;47.072;15.132;2023-12-29T09:09:26;3.20;;;1.40;;
20928;SDS011;21895;47.072;15.132;2023-12-29T09:11:53;2.57;;;1.30;;
20928;SDS011;21895;47.072;15.132;2023-12-29T09:14:19;3.63;;;1.20;;
20928;SDS011;21895;47.072;15.132;2023-12-29T09:16:46;2.87;;;1.10;;
20928;SDS011;21895;47.072;15.132;2023-12-29T09:19:12;3.90;;;1.00;;
20928;SDS011;21895;47.072;15.132;2023-12-29T09:21:56;3.67;;;1.37;;
20928;SDS011;21895;47.072;15.132;2023-12-29T09:24:22;4.20;;;2.07;;
20928;SDS011;21895;47.072;15.132;2023-12-29T09:26:50;2.13;;;1.37;;
20928;SDS011;21895;47.072;15.132;2023-12-29T09:29:17;4.10;;;1.83;;
20928;SDS011;21895;47.072;15.132;2023-12-29T09:31:44;4.77;;;1.43;;
20928;SDS011;21895;47.072;15.132;2023-12-29T09:34:11;6.10;;;2.03;;
20928;SDS011;21895;47.072;15.132;2023-12-29T09:36:38;6.90;;;2.27;;
20928;SDS011;21895;47.072;15.132;2023-12-29T09:39:04;5.17;;;2.00;;
20928;SDS011;21895;47.072;15.132;2023-12-29T09:41:31;6.40;;;2.10;;
20928;SDS011;21895;47.072;15.132;2023-12-29T09:43:59;5.77;;;2.17;;
20928;SDS011;21895;47.072;15.132;2023-12-29T09:46:29;7.43;;;2.27;;
20928;SDS011;21895;47.072;15.132;2023-12-29T09:48:59;7.13;;;2.50;;
20928;SDS011;21895;47.072;15.132;2023-12-29T09:51:30;7.37;;;2.53;;
20928;SDS011;21895;47.072;15.132;2023-12-29T09:53:58;6.97;;;2.47;;
20928;SDS011;21895;47.072;15.132;2023-12-29T09:56:26;11.07;;;3.57;;
20928;SDS011;21895;47.072;15.132;2023-12-29T09:58:53;7.87;;;2.37;;
20928;SDS011;21895;47.072;15.132;2023-12-29T10:01:22;3.73;;;2.10;;
20928;SDS011;21895;47.072;15.132;2023-12-29T10:03:52;10.40;;;2.60;;
20928;SDS011;21895;47.072;15.132;2023-12-29T10:06:20;9.33;;;2.80;;
20928;SDS011;21895;47.072;15.132;2023-12-29T10:08:50;8.50;;;3.10;;
20928;SDS011;21895;47.072;15.132;2023-12-29T10:11:20;5.60;;;3.00;;
20928;SDS011;21895;47.072;15.132;2023-12-29T10:13:49;11.97;;;2.37;;
20928;SDS011;21895;47.072;15.132;2023-12-29T10:16:24;7.77;;;2.37;;
20928;SDS011;21895;47.072;15.132;2023-12-29T10:19:08;8.77;;;3.07;;
20928;SDS011;21895;47.072;15.132;2023-12-29T10:22:26;20.80;;;3.00;;
20928;SDS011;21895;47.072;15.132;2023-12-29T10:25:57;19.93;;;5.00;;
20928;SDS011;21895;47.072;15.132;2023-12-29T10:28:24;13.63;;;5.07;;
20928;SDS011;21895;47.072;15.132;2023-12-29T10:30:51;12.53;;;5.07;;
20928;SDS011;21895;47.072;15.132;2023-12-29T10:33:20;13.03;;;5.27;;
20928;SDS011;21895;47.072;15.132;2023-12-29T10:35:56;16.77;;;4.63;;
20928;SDS011;21895;47.072;15.132;2023-12-29T10:38:32;17.30;;;4.27;;
20928;SDS011;21895;47.072;15.132;2023-12-29T10:41:15;20.73;;;4.97;;
20928;SDS011;21895;47.072;15.132;2023-12-29T10:43:44;7.63;;;3.00;;
20928;SDS011;21895;47.072;15.132;2023-12-29T10:46:18;5.57;;;2.73;;
20928;SDS011;21895;47.072;15.132;2023-12-29T10:48:45;7.23;;;2.13;;
20928;SDS011;21895;47.072;15.132;2023-12-29T10:51:11;6.53;;;3.27;;
20928;SDS011;21895;47.072;15.132;2023-12-29T10:53:38;5.43;;;2.60;;
20928;SDS011;21895;47.072;15.132;2023-12-29T10:56:17;7.60;;;2.70;;
20928;SDS011;21895;47.072;15.132;2023-12-29T10:58:56;18.27;;;3.13;;
20928;SDS011;21895;47.072;15.132;2023-12-29T11:01:32;9.03;;;3.30;;
20928;SDS011;21895;47.072;15.132;2023-12-29T11:04:05;10.57;;;3.10;;
20928;SDS011;21895;47.072;15.132;2023-12-29T11:06:41;10.43;;;3.60;;
20928;SDS011;21895;47.072;15.132;2023-12-29T11:09:12;9.43;;;3.17;;
20928;SDS011;21895;47.072;15.132;2023-12-29T11:11:39;9.47;;;2.83;;
20928;SDS011;21895;47.072;15.132;2023-12-29T11:14:09;8.93;;;2.90;;
20928;SDS011;21895;47.072;15.132;2023-12-29T11:16:37;10.00;;;2.83;;
20928;SDS011;21895;47.072;15.132;2023-12-29T11:19:06;10.33;;;3.40;;
20928;SDS011;21895;47.072;15.132;2023-12-29T11:21:38;8.60;;;2.97;;
20928;SDS011;21895;47.072;15.132;2023-12-29T11:24:08;7.57;;;2.90;;
20928;SDS011;21895;47.072;15.132;2023-12-29T11:26:34;8.60;;;3.17;;
20928;SDS011;21895;47.072;15.132;2023-12-29T11:29:03;7.07;;;2.60;;
20928;SDS011;21895;47.072;15.132;2023-12-29T11:31:30;20.40;;;2.87;;
20928;SDS011;21895;47.072;15.132;2023-12-29T11:34:00;9.53;;;3.13;;
20928;SDS011;21895;47.072;15.132;2023-12-29T11:36:56;6.87;;;2.87;;
20928;SDS011;21895;47.072;15.132;2023-12-29T11:42:35;10.00;;;2.83;;
20928;SDS011;21895;47.072;15.132;2023-12-29T11:45:29;7.77;;;2.43;;
20928;SDS011;21895;47.072;15.132;2023-12-29T11:48:01;4.77;;;2.50;;
20928;SDS011;21895;47.072;15.132;2023-12-29T11:50:29;9.60;;;2.77;;
20928;SDS011;21895;47.072;15.132;2023-12-29T11:52:59;6.37;;;1.93;;
20928;SDS011;21895;47.072;15.132;2023-12-29T11:55:30;7.80;;;2.50;;
20928;SDS011;21895;47.072;15.132;2023-12-29T11:58:05;6.90;;;2.20;;
20928;SDS011;21895;47.072;15.132;2023-12-29T12:00:51;16.20;;;2.57;;
20928;SDS011;21895;47.072;15.132;2023-12-29T12:03:30;16.93;;;3.03;;
20928;SDS011;21895;47.072;15.132;2023-12-29T12:05:59;4.23;;;2.37;;
20928;SDS011;21895;47.072;15.132;2023-12-29T12:14:10;5.93;;;2.63;;
20928;SDS011;21895;47.072;15.132;2023-12-29T12:19:36;3.97;;;1.43;;
20928;SDS011;21895;47.072;15.132;2023-12-29T12:22:03;5.50;;;2.10;;
20928;SDS011;21895;47.072;15.132;2023-12-29T12:24:32;4.03;;;2.20;;
20928;SDS011;21895;47.072;15.132;2023-12-29T12:27:02;8.23;;;2.30;;
20928;SDS011;21895;47.072;15.132;2023-12-29T12:29:34;6.63;;;2.13;;
20928;SDS011;21895;47.072;15.132;2023-12-29T12:32:01;8.00;;;2.13;;
20928;SDS011;21895;47.072;15.132;2023-12-29T12:34:36;20.93;;;3.03;;
20928;SDS011;21895;47.072;15.132;2023-12-29T12:37:05;5.53;;;2.40;;
20928;SDS011;21895;47.072;15.132;2023-12-29T12:39:41;4.30;;;2.20;;
20928;SDS011;21895;47.072;15.132;2023-12-29T12:42:08;4.13;;;1.93;;
20928;SDS011;21895;47.072;15.132;2023-12-29T12:44:37;6.20;;;2.33;;
20928;SDS011;21895;47.072;15.132;2023-12-29T12:47:07;4.53;;;2.13;;
20928;SDS011;21895;47.072;15.132;2023-12-29T12:49:45;5.73;;;1.83;;
20928;SDS011;21895;47.072;15.132;2023-12-29T12:52:12;5.30;;;2.20;;
20928;SDS011;21895;47.072;15.132;2023-12-29T12:54:38;8.20;;;2.40;;
20928;SDS011;21895;47.072;15.132;2023-12-29T12:57:06;8.40;;;2.27;;
20928;SDS011;21895;47.072;15.132;2023-12-29T12:59:32;4.97;;;2.00;;
20928;SDS011;21895;47.072;15.132;2023-12-29T13:01:59;9.43;;;1.90;;
20928;SDS011;21895;47.072;15.132;2023-12-29T13:04:28;5.30;;;2.30;;
20928;SDS011;21895;47.072;15.132;2023-12-29T13:06:55;10.13;;;2.30;;
20928;SDS011;21895;47.072;15.132;2023-12-29T13:09:21;3.77;;;2.13;;
20928;SDS011;21895;47.072;15.132;2023-12-29T13:11:48;4.50;;;2.33;;
20928;SDS011;21895;47.072;15.132;2023-12-29T13:14:23;6.43;;;2.37;;
20928;SDS011;21895;47.072;15.132;2023-12-29T13:16:51;8.07;;;2.83;;
20928;SDS011;21895;47.072;15.132;2023-12-29T13:19:21;6.60;;;2.97;;
20928;SDS011;21895;47.072;15.132;2023-12-29T13:21:51;9.53;;;3.20;;
20928;SDS011;21895;47.072;15.132;2023-12-29T13:24:21;7.77;;;3.20;;
20928;SDS011;21895;47.072;15.132;2023-12-29T13:26:50;16.03;;;4.30;;
20928;SDS011;21895;47.072;15.132;2023-12-29T13:29:21;12.07;;;3.57;;
20928;SDS011;21895;47.072;15.132;2023-12-29T13:31:52;11.87;;;3.60;;
20928;SDS011;21895;47.072;15.132;2023-12-29T13:35:08;8.33;;;3.60;;
20928;SDS011;21895;47.072;15.132;2023-12-29T13:38:08;8.50;;;2.67;;
20928;SDS011;21895;47.072;15.132;2023-12-29T13:40:42;7.40;;;3.03;;
20928;SDS011;21895;47.072;15.132;2023-12-29T13:43:26;14.53;;;2.70;;
20928;SDS011;21895;47.072;15.132;2023-12-29T13:45:59;6.83;;;2.63;;
20928;SDS011;21895;47.072;15.132;2023-12-29T13:48:27;5.53;;;2.53;;
20928;SDS011;21895;47.072;15.132;2023-12-29T13:50:55;7.83;;;3.30;;
20928;SDS011;21895;47.072;15.132;2023-12-29T13:53:22;9.57;;;3.03;;
20928;SDS011;21895;47.072;15.132;2023-12-29T13:55:49;15.07;;;3.10;;
20928;SDS011;21895;47.072;15.132;2023-12-29T13:58:16;8.07;;;3.17;;
20928;SDS011;21895;47.072;15.132;2023-12-29T14:00:45;12.87;;;3.07;;
20928;SDS011;21895;47.072;15.132;2023-12-29T14:03:23;8.90;;;3.30;;
20928;SDS011;21895;47.072;15.132;2023-12-29T14:06:04;4.70;;;2.63;;
20928;SDS011;21895;47.072;15.132;2023-12-29T14:08:40;5.73;;;2.80;;
20928;SDS011;21895;47.072;15.132;2023-12-29T14:11:12;10.10;;;2.70;;
20928;SDS011;21895;47.072;15.132;2023-12-29T14:13:42;14.87;;;5.27;;
20928;SDS011;21895;47.072;15.132;2023-12-29T14:16:10;11.17;;;5.37;;
20928;SDS011;21895;47.072;15.132;2023-12-29T14:21:31;17.13;;;5.77;;
20928;SDS011;21895;47.072;15.132;2023-12-29T14:24:14;13.13;;;4.80;;
20928;SDS011;21895;47.072;15.132;2023-12-29T14:26:55;16.67;;;6.33;;
20928;SDS011;21895;47.072;15.132;2023-12-29T14:29:22;19.43;;;6.13;;
20928;SDS011;21895;47.072;15.132;2023-12-29T14:31:49;15.63;;;6.30;;
20928;SDS011;21895;47.072;15.132;2023-12-29T14:34:17;14.03;;;5.17;;
20928;SDS011;21895;47.072;15.132;2023-12-29T14:36:44;14.67;;;5.60;;
20928;SDS011;21895;47.072;15.132;2023-12-29T14:39:11;15.33;;;6.00;;
20928;SDS011;21895;47.072;15.132;2023-12-29T14:41:39;13.00;;;4.87;;
20928;SDS011;21895;47.072;15.132;2023-12-29T14:44:05;14.13;;;5.50;;
20928;SDS011;21895;47.072;15.132;2023-12-29T14:46:32;13.57;;;6.30;;
20928;SDS011;21895;47.072;15.132;2023-12-29T14:49:00;18.63;;;5.50;;
20928;SDS011;21895;47.072;15.132;2023-12-29T14:51:26;20.50;;;6.23;;
20928;SDS011;21895;47.072;15.132;2023-12-29T14:53:53;11.40;;;4.57;;
20928;SDS011;21895;47.072;15.132;2023-12-29T14:56:20;10.40;;;4.70;;
20928;SDS011;21895;47.072;15.132;2023-12-29T14:58:47;14.60;;;4.77;;
20928;SDS011;21895;47.072;15.132;2023-12-29T15:01:14;12.60;;;4.80;;
20928;SDS011;21895;47.072;15.132;2023-12-29T15:03:42;12.67;;;5.27;;